createdAt,value
2019-01-31T00:01:00.760Z,-1.90
2019-01-31T00:03:50.030Z,-2.00
2019-01-31T00:06:24.272Z,-2.00
2019-01-31T00:09:12.405Z,-2.10
2019-01-31T00:11:52.685Z,-2.20
2019-01-31T00:14:30.306Z,-2.20
2019-01-31T00:17:16.861Z,-2.20
2019-01-31T00:19:54.197Z,-2.10
2019-01-31T00:22:40.525Z,-2.00
2019-01-31T00:25:28.392Z,-2.00
2019-01-31T00:28:27.075Z,-2.00
2019-01-31T00:31:07.548Z,-2.10
2019-01-31T00:33:39.039Z,-2.20
2019-01-31T00:36:16.293Z,-2.20
2019-01-31T00:38:56.640Z,-2.20
2019-01-31T00:41:29.536Z,-2.20
2019-01-31T00:44:19.062Z,-2.20
2019-01-31T00:46:50.534Z,-2.20
2019-01-31T00:49:40.290Z,-2.10
2019-01-31T00:52:17.932Z,-2.10
2019-01-31T00:55:07.962Z,-2.10
2019-01-31T00:57:50.801Z,-2.10
2019-01-31T01:00:37.429Z,-2.10
2019-01-31T01:03:27.244Z,-2.00
2019-01-31T01:06:16.961Z,-2.00
2019-01-31T01:09:14.037Z,-1.90
2019-01-31T01:12:06.586Z,-1.90
2019-01-31T01:14:38.305Z,-2.00
2019-01-31T01:17:12.679Z,-2.00
2019-01-31T01:19:56.386Z,-2.10
2019-01-31T01:22:49.132Z,-2.20
2019-01-31T01:25:29.551Z,-2.20
2019-01-31T01:28:24.622Z,-2.30
2019-01-31T01:31:10.901Z,-2.30
2019-01-31T01:34:12.105Z,-2.30
2019-01-31T01:36:46.270Z,-2.30
2019-01-31T01:39:29.117Z,-2.30
2019-01-31T01:42:03.302Z,-2.40
2019-01-31T01:44:37.820Z,-2.40
2019-01-31T01:47:14.917Z,-2.40
2019-01-31T01:49:55.370Z,-2.50
2019-01-31T01:52:41.899Z,-2.50
2019-01-31T01:55:36.001Z,-2.50
2019-01-31T01:58:34.288Z,-2.50
2019-01-31T02:01:22.380Z,-2.50
2019-01-31T02:04:05.625Z,-2.50
2019-01-31T02:06:39.597Z,-2.50
2019-01-31T02:09:13.977Z,-2.60
2019-01-31T02:11:57.501Z,-2.60
2019-01-31T02:14:55.649Z,-2.70
2019-01-31T02:17:41.740Z,-2.80
2019-01-31T02:20:28.401Z,-2.90
2019-01-31T02:23:02.790Z,-3.00
2019-01-31T02:25:51.579Z,-3.10
2019-01-31T02:28:29.232Z,-3.20
2019-01-31T02:31:09.657Z,-3.20
2019-01-31T02:33:43.597Z,-3.10
2019-01-31T02:36:39.406Z,-3.10
2019-01-31T02:39:27.330Z,-3.00
2019-01-31T02:42:18.420Z,-2.90
2019-01-31T02:44:55.871Z,-2.80
2019-01-31T02:47:45.388Z,-2.80
2019-01-31T02:50:44.010Z,-2.90
2019-01-31T02:53:21.397Z,-2.90
2019-01-31T02:55:52.868Z,-2.90
2019-01-31T02:58:27.182Z,-3.00
2019-01-31T03:01:13.585Z,-3.00
2019-01-31T03:03:59.943Z,-3.00
2019-01-31T03:06:31.413Z,-3.20
2019-01-31T03:09:15.228Z,-3.30
2019-01-31T03:11:49.702Z,-3.40
2019-01-31T03:14:21.173Z,-3.50
2019-01-31T03:17:07.475Z,-3.50
2019-01-31T03:19:41.896Z,-3.60
2019-01-31T03:22:18.998Z,-3.70
2019-01-31T03:25:07.140Z,-3.90
2019-01-31T03:27:50.717Z,-4.00
2019-01-31T03:30:28.114Z,-4.00
2019-01-31T03:33:04.702Z,-3.90
2019-01-31T03:35:48.368Z,-4.00
2019-01-31T03:38:20.098Z,-4.10
2019-01-31T03:41:06.466Z,-4.10
2019-01-31T03:44:03.501Z,-4.30
2019-01-31T03:47:08.566Z,-4.30
2019-01-31T03:49:49.002Z,-4.30
2019-01-31T03:52:32.504Z,-4.40
2019-01-31T03:55:24.817Z,-4.50
2019-01-31T03:58:04.845Z,-4.50
2019-01-31T04:00:55.990Z,-4.50
2019-01-31T04:03:32.773Z,-4.60
2019-01-31T04:06:04.309Z,-4.70
2019-01-31T04:08:32.538Z,-4.70
2019-01-31T04:11:01.097Z,-4.60
2019-01-31T04:13:29.302Z,-4.70
2019-01-31T04:15:57.536Z,-4.70
2019-01-31T04:18:25.745Z,-4.70
2019-01-31T04:20:53.964Z,-4.70
2019-01-31T04:23:22.190Z,-4.80
2019-01-31T04:25:50.400Z,-4.90
2019-01-31T04:28:18.627Z,-5.00
2019-01-31T04:30:46.844Z,-4.90
2019-01-31T04:33:15.053Z,-4.90
2019-01-31T04:35:43.286Z,-4.90
2019-01-31T04:38:11.501Z,-4.90
2019-01-31T04:40:39.706Z,-4.90
2019-01-31T04:43:07.934Z,-5.00
2019-01-31T04:45:36.157Z,-5.10
2019-01-31T04:48:04.365Z,-5.20
2019-01-31T04:50:32.584Z,-5.30
2019-01-31T04:53:00.804Z,-5.20
2019-01-31T04:55:29.040Z,-5.20
2019-01-31T04:57:57.251Z,-5.30
2019-01-31T05:00:25.457Z,-5.30
2019-01-31T05:02:53.711Z,-5.30
2019-01-31T05:05:21.920Z,-5.20
2019-01-31T05:07:50.140Z,-5.30
2019-01-31T05:10:18.355Z,-5.20
2019-01-31T05:12:46.577Z,-5.20
2019-01-31T05:15:14.790Z,-5.20
2019-01-31T05:17:42.992Z,-5.20
2019-01-31T05:20:17.133Z,-5.20
2019-01-31T05:22:45.360Z,-5.20
2019-01-31T05:25:14.810Z,-5.20
2019-01-31T05:27:43.026Z,-5.10
2019-01-31T05:30:13.885Z,-5.20
2019-01-31T05:32:42.104Z,-5.30
2019-01-31T05:35:11.355Z,-5.30
2019-01-31T05:37:42.699Z,-5.20
2019-01-31T05:40:13.853Z,-5.30
2019-01-31T05:42:42.121Z,-5.30
2019-01-31T05:45:13.374Z,-5.30
2019-01-31T05:47:41.618Z,-5.30
2019-01-31T05:50:13.590Z,-5.30
2019-01-31T05:52:44.807Z,-5.20
2019-01-31T05:55:14.139Z,-5.20
2019-01-31T05:57:42.353Z,-5.30
2019-01-31T06:00:21.140Z,-5.30
2019-01-31T06:02:49.348Z,-5.20
2019-01-31T06:05:17.580Z,-5.20
2019-01-31T06:07:45.791Z,-5.10
2019-01-31T06:10:14.068Z,-5.10
2019-01-31T06:12:42.305Z,-5.20
2019-01-31T06:15:13.776Z,-5.20
2019-01-31T06:17:42.002Z,-5.30
2019-01-31T06:20:16.366Z,-5.50
2019-01-31T06:22:44.599Z,-5.70
2019-01-31T06:25:12.834Z,-5.90
2019-01-31T06:27:41.058Z,-6.00
2019-01-31T06:30:12.541Z,-6.00
2019-01-31T06:32:40.757Z,-6.00
2019-01-31T06:35:11.809Z,-5.80
2019-01-31T06:37:40.040Z,-5.60
2019-01-31T06:40:14.245Z,-5.50
2019-01-31T06:42:42.453Z,-5.40
2019-01-31T06:45:19.382Z,-5.30
2019-01-31T06:47:47.595Z,-5.20
2019-01-31T06:50:15.814Z,-5.30
2019-01-31T06:52:44.077Z,-5.30
2019-01-31T06:55:12.388Z,-5.40
2019-01-31T06:57:40.610Z,-5.50
2019-01-31T07:00:15.284Z,-5.40
2019-01-31T07:02:43.498Z,-5.40
2019-01-31T07:05:11.724Z,-5.50
2019-01-31T07:07:39.929Z,-5.70
2019-01-31T07:10:20.241Z,-5.80
2019-01-31T07:12:48.452Z,-5.80
2019-01-31T07:15:16.664Z,-5.70
2019-01-31T07:17:44.894Z,-5.80
2019-01-31T07:20:16.363Z,-5.70
2019-01-31T07:22:44.572Z,-5.70
2019-01-31T07:25:23.993Z,-5.70
2019-01-31T07:27:52.216Z,-5.70
2019-01-31T07:30:22.970Z,-5.70
2019-01-31T07:32:51.185Z,-5.80
2019-01-31T07:35:19.405Z,-5.80
2019-01-31T07:37:47.628Z,-5.80
2019-01-31T07:40:22.766Z,-5.70
2019-01-31T07:42:50.988Z,-5.70
2019-01-31T07:45:24.560Z,-5.70
2019-01-31T07:47:52.785Z,-5.70
2019-01-31T07:50:21.009Z,-5.60
2019-01-31T07:52:49.235Z,-5.60
2019-01-31T07:55:18.712Z,-5.60
2019-01-31T07:57:46.928Z,-5.60
2019-01-31T08:00:20.401Z,-5.60
2019-01-31T08:02:48.619Z,-5.70
2019-01-31T08:05:19.586Z,-5.70
2019-01-31T08:07:48.932Z,-5.70
2019-01-31T08:10:20.657Z,-5.80
2019-01-31T08:12:48.879Z,-5.70
2019-01-31T08:15:18.781Z,-5.70
2019-01-31T08:17:47.014Z,-5.70
2019-01-31T08:20:18.053Z,-5.70
2019-01-31T08:22:46.277Z,-5.70
2019-01-31T08:25:25.170Z,-5.70
2019-01-31T08:27:55.210Z,-5.80
2019-01-31T08:30:29.561Z,-5.70
2019-01-31T08:32:57.777Z,-5.60
2019-01-31T08:35:26.031Z,-5.60
2019-01-31T08:37:54.257Z,-5.40
2019-01-31T08:40:22.467Z,-5.30
2019-01-31T08:42:50.701Z,-5.20
2019-01-31T08:45:18.914Z,-5.10
2019-01-31T08:47:47.158Z,-5.10
2019-01-31T08:50:18.020Z,-5.00
2019-01-31T08:52:46.245Z,-4.90
2019-01-31T08:55:14.465Z,-4.70
2019-01-31T08:57:42.878Z,-4.50
2019-01-31T09:00:19.505Z,-4.20
2019-01-31T09:02:47.717Z,-3.90
2019-01-31T09:05:15.931Z,-3.70
2019-01-31T09:07:44.153Z,-3.50
2019-01-31T09:10:15.624Z,-3.20
2019-01-31T09:12:43.854Z,-3.00
2019-01-31T09:15:15.467Z,-2.80
2019-01-31T09:17:43.710Z,-2.70
2019-01-31T09:20:15.177Z,-2.60
2019-01-31T09:22:46.652Z,-2.30
2019-01-31T09:25:38.580Z,-2.00
2019-01-31T09:28:24.374Z,-1.70
2019-01-31T09:31:07.685Z,-1.50
2019-01-31T09:33:41.665Z,-1.30
2019-01-31T09:36:29.931Z,-1.00
2019-01-31T09:39:13.443Z,-0.80
2019-01-31T09:41:44.917Z,-0.70
2019-01-31T09:44:33.844Z,-0.60
2019-01-31T09:47:35.905Z,-0.40
2019-01-31T09:50:34.770Z,-0.40
2019-01-31T09:53:28.616Z,-0.50
2019-01-31T09:56:05.717Z,-0.70
2019-01-31T09:58:42.971Z,-0.70
2019-01-31T10:01:52.252Z,-0.70
2019-01-31T10:04:31.301Z,-0.60
2019-01-31T10:07:11.089Z,-0.50
2019-01-31T10:09:45.389Z,-0.40
2019-01-31T10:12:23.448Z,-0.10
2019-01-31T10:14:55.891Z,-0.30
2019-01-31T10:17:48.510Z,-0.30
2019-01-31T10:20:31.985Z,-0.20
2019-01-31T10:23:15.337Z,0.00
2019-01-31T10:25:46.806Z,0.20
2019-01-31T10:28:39.262Z,0.30
2019-01-31T10:31:19.609Z,0.20
2019-01-31T10:33:51.096Z,0.40
2019-01-31T10:36:25.226Z,0.60
2019-01-31T10:39:04.302Z,0.90
2019-01-31T10:41:44.686Z,1.10
2019-01-31T10:44:39.069Z,1.40
2019-01-31T10:47:19.753Z,1.90
2019-01-31T10:49:54.142Z,2.20
2019-01-31T10:52:40.505Z,2.50
2019-01-31T10:55:34.582Z,2.70
2019-01-31T10:58:30.253Z,3.20
2019-01-31T11:01:07.551Z,3.30
2019-01-31T11:03:41.509Z,4.50
2019-01-31T11:06:15.965Z,6.60
2019-01-31T11:08:55.957Z,8.20
2019-01-31T11:11:39.141Z,9.60
2019-01-31T11:14:30.150Z,10.60
2019-01-31T11:17:04.607Z,10.80
2019-01-31T11:19:38.657Z,10.90
2019-01-31T11:22:18.748Z,11.30
2019-01-31T11:25:19.141Z,12.10
2019-01-31T11:28:05.497Z,12.00
2019-01-31T11:30:39.916Z,11.70
2019-01-31T11:33:27.724Z,11.30
2019-01-31T11:36:05.152Z,11.10
2019-01-31T11:38:36.661Z,10.80
2019-01-31T11:41:17.129Z,10.60
2019-01-31T11:44:06.753Z,10.40
2019-01-31T11:46:38.224Z,10.60
2019-01-31T11:49:12.699Z,11.60
2019-01-31T11:51:46.740Z,12.80
2019-01-31T11:54:45.378Z,12.60
2019-01-31T11:57:25.756Z,12.20
2019-01-31T11:59:53.984Z,11.50
2019-01-31T12:02:22.201Z,11.40
2019-01-31T12:04:50.412Z,11.60
2019-01-31T12:07:18.633Z,11.50
2019-01-31T12:09:46.861Z,10.10
2019-01-31T12:12:15.079Z,10.40
2019-01-31T12:14:43.296Z,10.90
2019-01-31T12:17:11.599Z,11.30
2019-01-31T12:19:39.856Z,10.10
2019-01-31T12:22:08.061Z,9.70
2019-01-31T12:24:36.271Z,10.40
2019-01-31T12:27:04.505Z,9.50
2019-01-31T12:29:32.704Z,8.60
2019-01-31T12:32:01.046Z,8.70
2019-01-31T12:34:29.331Z,9.40
2019-01-31T12:36:57.551Z,9.90
2019-01-31T12:39:25.760Z,9.90
2019-01-31T12:41:54.036Z,10.40
2019-01-31T12:44:22.263Z,9.70
2019-01-31T12:46:50.472Z,10.40
2019-01-31T12:49:18.710Z,11.10
2019-01-31T12:51:46.905Z,11.10
2019-01-31T12:54:15.129Z,10.70
2019-01-31T12:56:43.337Z,10.20
2019-01-31T12:59:11.554Z,10.20
2019-01-31T13:01:39.773Z,10.70
2019-01-31T13:04:07.982Z,9.40
2019-01-31T13:06:36.185Z,8.00
2019-01-31T13:09:08.591Z,7.30
2019-01-31T13:11:36.948Z,7.60
2019-01-31T13:14:06.037Z,7.30
2019-01-31T13:16:34.492Z,8.30
2019-01-31T13:19:02.764Z,8.80
2019-01-31T13:21:30.969Z,8.90
2019-01-31T13:23:59.244Z,8.30
2019-01-31T13:26:27.444Z,7.70
2019-01-31T13:28:55.654Z,7.70
2019-01-31T13:31:23.928Z,7.50
2019-01-31T13:33:52.144Z,7.40
2019-01-31T13:36:20.422Z,7.20
2019-01-31T13:38:48.631Z,6.90
2019-01-31T13:41:16.849Z,6.60
2019-01-31T13:43:45.067Z,6.50
2019-01-31T13:46:13.292Z,6.30
2019-01-31T13:48:41.577Z,6.10
2019-01-31T13:51:09.794Z,6.40
2019-01-31T13:53:38.000Z,6.40
2019-01-31T13:56:07.302Z,6.30
2019-01-31T13:58:35.520Z,6.10
2019-01-31T14:01:04.702Z,6.10
2019-01-31T14:03:33.012Z,5.80
2019-01-31T14:06:01.211Z,5.60
2019-01-31T14:08:29.483Z,5.50
2019-01-31T14:10:57.721Z,5.40
2019-01-31T14:13:25.929Z,4.90
2019-01-31T14:15:54.149Z,4.70
2019-01-31T14:18:22.355Z,4.50
2019-01-31T14:20:50.577Z,3.90
2019-01-31T14:23:18.823Z,3.20
2019-01-31T14:25:47.029Z,2.30
2019-01-31T14:28:15.236Z,1.40
2019-01-31T14:30:43.463Z,0.70
2019-01-31T14:33:19.457Z,0.30
2019-01-31T14:35:47.703Z,0.10
2019-01-31T14:38:16.046Z,-0.10
2019-01-31T14:40:44.334Z,-0.30
2019-01-31T14:43:12.554Z,-0.30
2019-01-31T14:45:40.774Z,-0.40
2019-01-31T14:48:08.989Z,-0.40
2019-01-31T14:50:37.230Z,-0.50
2019-01-31T14:53:06.200Z,-0.50
2019-01-31T14:55:34.500Z,-0.70
2019-01-31T14:58:02.726Z,-0.60
2019-01-31T15:00:34.461Z,-0.60
2019-01-31T15:03:02.701Z,-0.60
2019-01-31T15:05:30.941Z,-0.60
2019-01-31T15:07:59.192Z,-0.50
2019-01-31T15:10:31.440Z,-0.60
2019-01-31T15:12:59.688Z,-0.60
2019-01-31T15:15:27.909Z,-0.70
2019-01-31T15:17:56.211Z,-0.80
2019-01-31T15:20:37.538Z,-0.90
2019-01-31T15:23:02.862Z,-1.00
2019-01-31T15:25:31.161Z,-1.10
2019-01-31T15:27:59.381Z,-1.30
2019-01-31T15:30:33.210Z,-1.40
2019-01-31T15:33:02.800Z,-1.40
2019-01-31T15:35:31.117Z,-1.50
2019-01-31T15:37:59.333Z,-1.60
2019-01-31T15:40:36.680Z,-1.60
2019-01-31T15:43:06.601Z,-1.70
2019-01-31T15:45:34.911Z,-1.60
2019-01-31T15:48:03.140Z,-1.70
2019-01-31T15:50:31.356Z,-1.70
2019-01-31T15:52:59.605Z,-1.80
2019-01-31T15:55:27.876Z,-1.90
2019-01-31T15:57:56.185Z,-1.90
2019-01-31T16:00:41.294Z,-2.00
2019-01-31T16:03:12.460Z,-2.00
2019-01-31T16:05:40.668Z,-2.00
2019-01-31T16:08:10.241Z,-2.10
2019-01-31T16:10:38.494Z,-2.10
2019-01-31T16:13:06.947Z,-2.10
2019-01-31T16:15:35.223Z,-2.10
2019-01-31T16:18:04.349Z,-2.20
2019-01-31T16:20:32.571Z,-2.20
2019-01-31T16:23:00.781Z,-2.10
2019-01-31T16:25:29.022Z,-2.20
2019-01-31T16:27:57.233Z,-2.10
2019-01-31T16:30:26.215Z,-2.10
2019-01-31T16:32:54.578Z,-2.00
2019-01-31T16:35:22.805Z,-2.00
2019-01-31T16:37:51.030Z,-2.00
2019-01-31T16:40:19.350Z,-2.00
2019-01-31T16:42:47.585Z,-2.00
2019-01-31T16:45:17.324Z,-2.00
2019-01-31T16:47:45.562Z,-2.00
2019-01-31T16:50:21.421Z,-1.90
2019-01-31T16:52:49.650Z,-1.90
2019-01-31T16:55:21.179Z,-2.00
2019-01-31T16:57:49.381Z,-2.20
2019-01-31T17:00:23.569Z,-2.30
2019-01-31T17:02:51.855Z,-2.40
2019-01-31T17:05:23.109Z,-2.50
2019-01-31T17:07:51.348Z,-2.60
2019-01-31T17:10:19.587Z,-2.60
2019-01-31T17:12:47.801Z,-2.60
2019-01-31T17:15:22.108Z,-2.60
2019-01-31T17:17:50.325Z,-2.60
2019-01-31T17:20:33.179Z,-2.60
2019-01-31T17:23:01.388Z,-2.70
2019-01-31T17:25:29.600Z,-2.60
2019-01-31T17:27:57.828Z,-2.60
2019-01-31T17:30:27.712Z,-2.50
2019-01-31T17:32:55.943Z,-2.60
2019-01-31T17:35:24.213Z,-2.60
2019-01-31T17:37:52.425Z,-2.60
2019-01-31T17:40:27.036Z,-2.60
2019-01-31T17:42:55.252Z,-2.70
2019-01-31T17:45:30.350Z,-2.80
2019-01-31T17:47:55.113Z,-2.80
2019-01-31T17:50:23.350Z,-3.00
2019-01-31T17:52:52.562Z,-3.00
2019-01-31T17:55:23.920Z,-3.10
2019-01-31T17:57:52.128Z,-3.20
2019-01-31T18:00:27.289Z,-3.30
2019-01-31T18:02:55.677Z,-3.50
2019-01-31T18:05:23.919Z,-3.60
2019-01-31T18:07:52.143Z,-3.80
2019-01-31T18:10:23.942Z,-3.90
2019-01-31T18:12:52.162Z,-4.00
2019-01-31T18:15:20.385Z,-4.00
2019-01-31T18:17:48.663Z,-4.00
2019-01-31T18:20:27.719Z,-3.90
2019-01-31T18:22:56.085Z,-3.80
2019-01-31T18:25:24.344Z,-3.70
2019-01-31T18:27:53.261Z,-3.70
2019-01-31T18:30:27.769Z,-3.70
2019-01-31T18:32:56.016Z,-3.70
2019-01-31T18:35:24.228Z,-3.70
2019-01-31T18:37:52.497Z,-3.90
2019-01-31T18:40:26.465Z,-4.00
2019-01-31T18:42:54.705Z,-4.00
2019-01-31T18:45:25.950Z,-4.00
2019-01-31T18:47:54.192Z,-4.00
2019-01-31T18:50:24.963Z,-4.10
2019-01-31T18:52:53.185Z,-4.10
2019-01-31T18:55:21.414Z,-4.10
2019-01-31T18:57:49.634Z,-4.10
2019-01-31T19:00:35.651Z,-4.10
2019-01-31T19:03:04.138Z,-4.10
2019-01-31T19:05:32.341Z,-4.20
2019-01-31T19:08:00.557Z,-4.20
2019-01-31T19:10:47.462Z,-4.30
2019-01-31T19:13:15.686Z,-4.30
2019-01-31T19:15:46.353Z,-4.20
2019-01-31T19:18:13.860Z,-4.30
2019-01-31T19:20:42.074Z,-4.20
2019-01-31T19:23:10.308Z,-4.10
2019-01-31T19:25:38.516Z,-4.10
2019-01-31T19:28:06.796Z,-4.00
2019-01-31T19:30:37.748Z,-4.00
2019-01-31T19:33:07.702Z,-4.00
2019-01-31T19:35:36.775Z,-4.00
2019-01-31T19:38:07.120Z,-4.00
2019-01-31T19:40:41.184Z,-4.00
2019-01-31T19:43:09.420Z,-3.90
2019-01-31T19:45:45.941Z,-3.90
2019-01-31T19:48:14.174Z,-3.80
2019-01-31T19:50:43.613Z,-3.60
2019-01-31T19:53:12.537Z,-3.50
2019-01-31T19:55:40.821Z,-3.50
2019-01-31T19:58:09.044Z,-3.40
2019-01-31T20:00:37.296Z,-3.30
2019-01-31T20:03:06.675Z,-3.20
2019-01-31T20:05:35.732Z,-3.10
2019-01-31T20:08:06.179Z,-3.10
2019-01-31T20:10:34.386Z,-3.10
2019-01-31T20:13:02.608Z,-3.10
2019-01-31T20:15:30.812Z,-3.10
2019-01-31T20:17:59.095Z,-3.20
2019-01-31T20:20:28.951Z,-3.20
2019-01-31T20:22:58.296Z,-3.10
2019-01-31T20:25:28.460Z,-3.00
2019-01-31T20:27:56.673Z,-2.90
2019-01-31T20:30:47.432Z,-2.90
2019-01-31T20:33:15.660Z,-2.80
2019-01-31T20:35:43.857Z,-2.80
2019-01-31T20:38:12.077Z,-2.70
2019-01-31T20:40:41.070Z,-2.70
2019-01-31T20:43:09.424Z,-2.60
2019-01-31T20:45:37.733Z,-2.60
2019-01-31T20:48:06.609Z,-2.50
2019-01-31T20:50:36.765Z,-2.40
2019-01-31T20:53:06.128Z,-2.40
2019-01-31T20:55:34.450Z,-2.30
2019-01-31T20:58:02.729Z,-2.30
2019-01-31T21:00:36.648Z,-2.30
2019-01-31T21:03:07.100Z,-2.20
2019-01-31T21:05:35.380Z,-2.20
2019-01-31T21:08:03.670Z,-2.20
2019-01-31T21:10:31.957Z,-2.20
2019-01-31T21:13:00.170Z,-2.20
2019-01-31T21:15:28.385Z,-2.20
2019-01-31T21:17:56.613Z,-2.20
2019-01-31T21:20:26.295Z,-2.10
2019-01-31T21:22:55.043Z,-2.10
2019-01-31T21:25:23.261Z,-2.20
2019-01-31T21:27:51.468Z,-2.10
2019-01-31T21:30:35.049Z,-2.10
2019-01-31T21:33:03.261Z,-2.00
2019-01-31T21:35:31.465Z,-1.90
2019-01-31T21:37:59.774Z,-1.90
2019-01-31T21:40:31.017Z,-1.80
2019-01-31T21:42:59.346Z,-1.70
2019-01-31T21:45:27.541Z,-1.60
2019-01-31T21:47:55.756Z,-1.60
2019-01-31T21:50:27.363Z,-1.60
2019-01-31T21:52:55.654Z,-1.50
2019-01-31T21:55:23.865Z,-1.50
2019-01-31T21:57:52.089Z,-1.50
2019-01-31T22:00:22.967Z,-1.50
2019-01-31T22:02:51.185Z,-1.50
2019-01-31T22:05:19.401Z,-1.50
2019-01-31T22:07:47.613Z,-1.40
2019-01-31T22:10:18.707Z,-1.40
2019-01-31T22:12:47.213Z,-1.40
2019-01-31T22:15:29.986Z,-1.40
2019-01-31T22:18:00.235Z,-1.40
2019-01-31T22:20:28.387Z,-1.30
2019-01-31T22:22:56.685Z,-1.40
2019-01-31T22:25:24.904Z,-1.40
2019-01-31T22:27:53.128Z,-1.30
2019-01-31T22:30:24.691Z,-1.30
2019-01-31T22:32:52.925Z,-1.20
2019-01-31T22:35:21.144Z,-1.20
2019-01-31T22:37:49.358Z,-1.10
2019-01-31T22:40:17.845Z,-1.10
2019-01-31T22:42:46.053Z,-1.00
2019-01-31T22:45:20.330Z,-1.00
2019-01-31T22:47:48.549Z,-1.00
2019-01-31T22:50:19.689Z,-1.00
2019-01-31T22:52:47.899Z,-1.00
2019-01-31T22:55:21.965Z,-0.90
2019-01-31T22:57:50.189Z,-1.00
2019-01-31T23:00:26.016Z,-0.90
2019-01-31T23:02:54.257Z,-0.90
2019-01-31T23:05:22.445Z,-0.90
2019-01-31T23:07:51.734Z,-0.90
2019-01-31T23:10:20.544Z,-0.90
2019-01-31T23:12:48.760Z,-0.90
2019-01-31T23:15:16.968Z,-0.90
2019-01-31T23:17:45.179Z,-0.90
2019-01-31T23:20:14.467Z,-0.90
2019-01-31T23:22:42.673Z,-0.80
2019-01-31T23:25:10.892Z,-0.70
2019-01-31T23:27:39.108Z,-0.80
2019-01-31T23:30:15.800Z,-0.80
2019-01-31T23:32:44.016Z,-0.80
2019-01-31T23:35:12.225Z,-0.70
2019-01-31T23:37:40.456Z,-0.70
2019-01-31T23:40:13.265Z,-0.70
2019-01-31T23:42:41.489Z,-0.70
2019-01-31T23:45:18.269Z,-0.70
2019-01-31T23:47:49.053Z,-0.60
2019-01-31T23:50:16.461Z,-0.60
2019-01-31T23:52:44.673Z,-0.60
2019-01-31T23:55:15.218Z,-0.50
2019-01-31T23:57:43.432Z,-0.50
